createdAt,value
2022-07-27T00:00:52.373Z,64.94
2022-07-27T00:03:19.216Z,65.57
2022-07-27T00:05:46.223Z,65.71
2022-07-27T00:08:13.031Z,64.51
2022-07-27T00:10:39.712Z,63.05
2022-07-27T00:13:07.052Z,62.04
2022-07-27T00:15:34.702Z,61.61
2022-07-27T00:18:01.600Z,62.88
2022-07-27T00:20:29.420Z,63.90
2022-07-27T00:22:56.777Z,66.56
2022-07-27T00:25:24.358Z,66.21
2022-07-27T00:27:51.077Z,66.65
2022-07-27T00:30:17.719Z,66.31
2022-07-27T00:32:44.508Z,66.70
2022-07-27T00:35:12.585Z,66.84
2022-07-27T00:37:39.606Z,65.01
2022-07-27T00:40:07.083Z,63.58
2022-07-27T00:42:34.236Z,63.71
2022-07-27T00:45:02.972Z,63.17
2022-07-27T00:47:29.892Z,62.91
2022-07-27T00:49:58.248Z,61.70
2022-07-27T00:52:25.412Z,61.11
2022-07-27T00:54:52.610Z,63.40
2022-07-27T00:57:19.657Z,63.57
2022-07-27T00:59:46.280Z,64.70
2022-07-27T01:02:17.186Z,65.33
2022-07-27T01:04:47.350Z,66.57
2022-07-27T01:07:15.201Z,67.08
2022-07-27T01:09:42.574Z,67.61
2022-07-27T01:12:14.850Z,68.26
2022-07-27T01:14:41.499Z,70.36
2022-07-27T01:17:08.065Z,69.56
2022-07-27T01:19:35.484Z,68.18
2022-07-27T01:22:05.806Z,68.10
2022-07-27T01:24:33.389Z,69.59
2022-07-27T01:27:02.009Z,68.83
2022-07-27T01:29:30.211Z,67.36
2022-07-27T01:31:57.361Z,66.56
2022-07-27T01:34:25.340Z,66.08
2022-07-27T01:36:52.026Z,67.58
2022-07-27T01:39:19.275Z,66.38
2022-07-27T01:41:47.192Z,66.44
2022-07-27T01:44:14.412Z,64.93
2022-07-27T01:46:41.038Z,64.27
2022-07-27T01:49:08.360Z,62.92
2022-07-27T01:51:35.270Z,64.10
2022-07-27T01:54:01.986Z,63.17
2022-07-27T01:56:28.675Z,64.60
2022-07-27T01:58:55.466Z,65.58
2022-07-27T02:01:22.231Z,68.34
2022-07-27T02:03:49.124Z,69.98
2022-07-27T02:06:15.994Z,70.28
2022-07-27T02:08:42.732Z,72.08
2022-07-27T02:11:09.643Z,71.67
2022-07-27T02:13:36.374Z,72.99
2022-07-27T02:16:03.364Z,73.92
2022-07-27T02:18:36.007Z,73.97
2022-07-27T02:21:04.286Z,74.82
2022-07-27T02:23:30.901Z,74.66
2022-07-27T02:25:58.003Z,73.16
2022-07-27T02:28:24.651Z,73.53
2022-07-27T02:30:51.386Z,73.54
2022-07-27T02:33:18.125Z,71.89
2022-07-27T02:35:44.856Z,72.17
2022-07-27T02:38:11.429Z,72.48
2022-07-27T02:40:38.491Z,72.93
2022-07-27T02:43:05.264Z,72.47
2022-07-27T02:45:31.914Z,73.31
2022-07-27T02:47:58.656Z,72.82
2022-07-27T02:50:25.483Z,71.54
2022-07-27T02:52:52.067Z,69.81
2022-07-27T02:55:18.767Z,69.45
2022-07-27T02:57:45.448Z,69.28
2022-07-27T03:00:14.734Z,69.13
2022-07-27T03:02:42.146Z,68.24
2022-07-27T03:05:10.708Z,67.40
2022-07-27T03:07:37.298Z,67.16
2022-07-27T03:10:04.400Z,66.64
2022-07-27T03:12:31.026Z,66.47
2022-07-27T03:14:57.756Z,65.27
2022-07-27T03:17:24.431Z,64.30
2022-07-27T03:19:51.051Z,65.06
2022-07-27T03:22:17.643Z,65.31
2022-07-27T03:24:44.691Z,65.75
2022-07-27T03:27:11.291Z,66.09
2022-07-27T03:29:37.975Z,65.75
2022-07-27T03:32:04.837Z,66.73
2022-07-27T03:34:31.585Z,65.44
2022-07-27T03:36:58.143Z,65.78
2022-07-27T03:39:24.919Z,65.53
2022-07-27T03:42:01.172Z,65.60
2022-07-27T03:44:51.239Z,64.89
2022-07-27T03:47:18.563Z,64.43
2022-07-27T03:49:45.198Z,63.35
2022-07-27T03:52:17.270Z,64.75
2022-07-27T03:54:44.522Z,65.01
2022-07-27T03:57:11.159Z,65.04
2022-07-27T03:59:38.099Z,63.73
2022-07-27T04:02:06.460Z,63.29
2022-07-27T04:04:33.362Z,63.54
2022-07-27T04:07:00.089Z,62.40
2022-07-27T04:09:26.742Z,62.46
2022-07-27T04:11:55.740Z,61.91
2022-07-27T04:14:22.658Z,61.30
2022-07-27T04:16:49.353Z,62.12
2022-07-27T04:19:16.456Z,62.07
2022-07-27T04:21:43.531Z,63.69
2022-07-27T04:24:10.307Z,63.56
2022-07-27T04:26:36.946Z,63.35
2022-07-27T04:29:04.250Z,64.49
2022-07-27T04:31:31.253Z,64.88
2022-07-27T04:33:57.884Z,64.32
2022-07-27T04:36:24.496Z,64.04
2022-07-27T04:38:51.263Z,63.93
2022-07-27T04:41:17.809Z,65.48
2022-07-27T04:43:44.560Z,66.39
2022-07-27T04:46:15.124Z,65.61
2022-07-27T04:48:42.257Z,64.76
2022-07-27T04:51:18.209Z,64.41
2022-07-27T04:53:53.502Z,64.57
2022-07-27T04:56:26.356Z,63.53
2022-07-27T04:58:53.271Z,62.78
2022-07-27T05:01:19.963Z,63.62
2022-07-27T05:03:46.721Z,63.32
2022-07-27T05:06:13.716Z,62.78
2022-07-27T05:08:40.403Z,61.80
2022-07-27T05:11:07.114Z,61.61
2022-07-27T05:13:33.829Z,61.01
2022-07-27T05:16:00.486Z,61.41
2022-07-27T05:18:27.442Z,60.09
2022-07-27T05:20:54.323Z,60.44
2022-07-27T05:23:21.015Z,60.97
2022-07-27T05:25:47.945Z,61.17
2022-07-27T05:28:14.706Z,60.76
2022-07-27T05:30:41.885Z,62.25
2022-07-27T05:33:08.859Z,60.99
2022-07-27T05:35:35.767Z,61.95
2022-07-27T05:38:02.426Z,62.72
2022-07-27T05:40:29.380Z,61.01
2022-07-27T05:42:56.302Z,59.80
2022-07-27T05:45:23.372Z,60.08
2022-07-27T05:47:50.090Z,60.44
2022-07-27T05:50:18.007Z,60.44
2022-07-27T05:52:45.522Z,61.01
2022-07-27T05:55:12.806Z,61.47
2022-07-27T05:57:40.798Z,61.29
2022-07-27T06:00:09.136Z,60.67
2022-07-27T06:02:39.655Z,60.29
2022-07-27T06:05:11.927Z,61.85
2022-07-27T06:07:44.679Z,61.56
2022-07-27T06:10:17.167Z,60.98
2022-07-27T06:12:46.349Z,61.30
2022-07-27T06:15:14.583Z,61.32
2022-07-27T06:17:41.403Z,61.95
2022-07-27T06:20:09.489Z,62.70
2022-07-27T06:22:58.174Z,62.58
2022-07-27T06:25:34.151Z,62.54
2022-07-27T06:28:03.979Z,63.99
2022-07-27T06:30:30.765Z,64.21
2022-07-27T06:32:58.077Z,65.20
2022-07-27T06:35:26.541Z,66.30
2022-07-27T06:37:54.156Z,66.29
2022-07-27T06:40:21.347Z,66.01
2022-07-27T06:42:48.391Z,65.62
2022-07-27T06:45:15.280Z,66.42
2022-07-27T06:47:49.045Z,66.69
2022-07-27T06:50:20.815Z,67.07
2022-07-27T06:52:48.336Z,66.56
2022-07-27T06:55:15.238Z,65.34
2022-07-27T06:57:42.051Z,65.19
2022-07-27T07:00:09.455Z,64.16
2022-07-27T07:02:36.215Z,64.48
2022-07-27T07:05:03.725Z,63.72
2022-07-27T07:07:30.541Z,64.32
2022-07-27T07:09:57.674Z,63.69
2022-07-27T07:12:24.982Z,63.54
2022-07-27T07:14:52.301Z,63.59
2022-07-27T07:17:19.050Z,60.35
2022-07-27T07:19:46.940Z,58.60
2022-07-27T07:22:14.616Z,57.94
2022-07-27T07:24:41.804Z,58.08
2022-07-27T07:27:08.550Z,57.09
2022-07-27T07:29:35.293Z,56.33
2022-07-27T07:32:02.291Z,55.79
2022-07-27T07:34:29.728Z,56.17
2022-07-27T07:36:56.657Z,55.36
2022-07-27T07:39:27.833Z,55.76
2022-07-27T07:41:57.723Z,53.04
2022-07-27T07:44:24.351Z,53.32
2022-07-27T07:46:51.152Z,52.20
2022-07-27T07:49:18.775Z,52.99
2022-07-27T07:52:05.140Z,50.95
2022-07-27T07:54:31.798Z,50.29
2022-07-27T07:56:58.475Z,50.95
2022-07-27T07:59:25.303Z,50.28
2022-07-27T08:01:52.217Z,50.83
2022-07-27T08:04:18.989Z,51.08
2022-07-27T08:06:45.807Z,50.78
2022-07-27T08:09:12.772Z,49.70
2022-07-27T08:11:39.939Z,48.28
2022-07-27T08:14:06.503Z,49.19
2022-07-27T08:16:33.736Z,49.06
2022-07-27T08:19:00.411Z,46.67
2022-07-27T08:21:27.262Z,47.04
2022-07-27T08:23:58.802Z,46.32
2022-07-27T08:26:28.026Z,45.93
2022-07-27T08:28:54.611Z,46.52
2022-07-27T08:31:26.427Z,48.25
2022-07-27T08:34:08.685Z,48.00
2022-07-27T08:36:35.275Z,47.55
2022-07-27T08:39:02.040Z,44.90
2022-07-27T08:41:30.078Z,44.12
2022-07-27T08:43:59.618Z,43.81
2022-07-27T08:46:26.880Z,42.22
2022-07-27T08:48:55.597Z,40.79
2022-07-27T08:51:25.372Z,41.03
2022-07-27T08:53:53.981Z,40.36
2022-07-27T08:56:21.720Z,42.07
2022-07-27T08:58:48.674Z,42.87
2022-07-27T09:01:15.413Z,40.69
2022-07-27T09:03:42.146Z,41.42
2022-07-27T09:06:08.845Z,40.90
2022-07-27T09:08:35.549Z,41.45
2022-07-27T09:11:13.902Z,41.00
2022-07-27T09:13:40.750Z,39.88
2022-07-27T09:16:18.240Z,41.65
2022-07-27T09:18:45.774Z,41.10
2022-07-27T09:21:17.243Z,40.81
2022-07-27T09:23:50.814Z,41.42
2022-07-27T09:26:35.886Z,42.84
2022-07-27T09:29:06.096Z,42.69
2022-07-27T09:31:41.304Z,41.63
2022-07-27T09:34:08.432Z,42.08
2022-07-27T09:36:53.851Z,42.19
2022-07-27T09:39:22.259Z,43.33
2022-07-27T09:41:55.594Z,42.35
2022-07-27T09:44:43.489Z,42.46
2022-07-27T09:47:23.492Z,43.53
2022-07-27T09:49:50.183Z,44.13
2022-07-27T09:52:23.875Z,42.24
2022-07-27T09:54:51.606Z,43.44
2022-07-27T09:57:18.321Z,44.26
2022-07-27T09:59:45.828Z,44.72
2022-07-27T10:02:13.922Z,44.75
2022-07-27T10:04:41.057Z,43.24
2022-07-27T10:07:12.660Z,42.95
2022-07-27T10:09:40.954Z,43.51
2022-07-27T10:12:08.359Z,42.82
2022-07-27T10:14:35.016Z,41.64
2022-07-27T10:17:02.594Z,43.38
2022-07-27T10:19:44.056Z,42.63
2022-07-27T10:22:10.807Z,41.87
2022-07-27T10:24:37.535Z,41.72
2022-07-27T10:27:28.739Z,41.33
2022-07-27T10:29:57.238Z,42.67
2022-07-27T10:32:25.901Z,41.17
2022-07-27T10:34:53.008Z,40.80
2022-07-27T10:37:27.901Z,39.80
2022-07-27T10:39:55.968Z,41.15
2022-07-27T10:42:28.674Z,40.45
2022-07-27T10:44:56.794Z,41.15
2022-07-27T10:47:39.091Z,40.66
2022-07-27T10:50:17.821Z,40.36
2022-07-27T10:52:47.214Z,41.02
2022-07-27T10:55:32.548Z,42.27
2022-07-27T10:58:14.450Z,43.08
2022-07-27T11:00:54.811Z,42.46
2022-07-27T11:03:24.369Z,42.47
2022-07-27T11:06:04.643Z,43.77
2022-07-27T11:08:46.443Z,41.70
2022-07-27T11:11:17.007Z,40.75
2022-07-27T11:13:43.681Z,41.66
2022-07-27T11:16:23.790Z,41.56
2022-07-27T11:19:05.033Z,40.85
2022-07-27T11:21:34.041Z,40.99
2022-07-27T11:24:18.965Z,41.17
2022-07-27T11:26:51.771Z,42.13
2022-07-27T11:29:22.949Z,41.66
2022-07-27T11:31:56.090Z,41.50
2022-07-27T11:34:31.263Z,40.98
2022-07-27T11:36:59.152Z,41.12
2022-07-27T11:42:20.803Z,42.29
2022-07-27T11:44:48.933Z,43.40
2022-07-27T11:47:21.962Z,42.11
2022-07-27T11:49:48.796Z,42.23
2022-07-27T11:52:17.720Z,42.78
2022-07-27T11:54:51.252Z,41.37
2022-07-27T11:57:18.192Z,40.90
2022-07-27T11:59:45.612Z,40.49
2022-07-27T12:02:15.808Z,40.38
2022-07-27T12:04:45.203Z,39.99
2022-07-27T12:07:19.990Z,39.72
2022-07-27T12:09:51.537Z,38.61
2022-07-27T12:12:25.993Z,38.80
2022-07-27T12:15:44.810Z,40.56
2022-07-27T12:18:01.430Z,38.47
2022-07-27T12:20:35.720Z,38.94
2022-07-27T12:23:07.650Z,39.35
2022-07-27T12:25:34.593Z,37.03
2022-07-27T12:28:05.095Z,36.86
2022-07-27T12:30:45.836Z,37.22
2022-07-27T12:33:31.550Z,38.05
2022-07-27T12:36:02.452Z,38.89
2022-07-27T12:38:42.686Z,38.07
2022-07-27T12:41:09.688Z,37.38
2022-07-27T12:43:36.630Z,37.65
2022-07-27T12:46:13.952Z,37.36
2022-07-27T12:48:42.406Z,38.17
2022-07-27T12:51:10.508Z,39.66
2022-07-27T12:53:38.229Z,37.60
2022-07-27T12:56:07.647Z,36.05
2022-07-27T12:58:34.923Z,35.58
2022-07-27T13:01:01.816Z,37.01
2022-07-27T13:03:28.725Z,35.20
2022-07-27T13:05:55.556Z,34.99
2022-07-27T13:08:22.368Z,37.29
2022-07-27T13:10:49.261Z,37.52
2022-07-27T13:13:15.872Z,37.68
2022-07-27T13:15:42.556Z,38.07
2022-07-27T13:18:09.192Z,36.57
2022-07-27T13:20:36.322Z,36.27
2022-07-27T13:23:03.198Z,35.92
2022-07-27T13:25:30.063Z,35.53
2022-07-27T13:27:56.684Z,35.31
2022-07-27T13:30:24.554Z,35.81
2022-07-27T13:32:53.265Z,35.41
2022-07-27T13:35:19.836Z,35.26
2022-07-27T13:37:46.530Z,36.22
2022-07-27T13:40:14.087Z,36.80
2022-07-27T13:42:40.797Z,36.33
2022-07-27T13:45:10.515Z,33.39
2022-07-27T13:47:41.905Z,35.02
2022-07-27T13:50:17.417Z,35.62
2022-07-27T13:52:46.583Z,36.41
2022-07-27T13:55:14.768Z,36.44
2022-07-27T13:57:41.621Z,36.61
2022-07-27T14:00:08.820Z,36.69
2022-07-27T14:02:35.871Z,35.86
2022-07-27T14:05:05.853Z,36.68
2022-07-27T14:07:32.605Z,37.28
2022-07-27T14:09:59.196Z,37.54
2022-07-27T14:12:25.854Z,36.65
2022-07-27T14:14:52.411Z,36.89
2022-07-27T14:17:19.127Z,37.43
2022-07-27T14:19:45.784Z,36.09
2022-07-27T14:22:12.402Z,37.69
2022-07-27T14:24:39.420Z,36.40
2022-07-27T14:27:06.904Z,36.50
2022-07-27T14:29:34.193Z,35.50
2022-07-27T14:32:01.220Z,35.82
2022-07-27T14:34:27.897Z,35.19
2022-07-27T14:36:54.498Z,34.66
2022-07-27T14:39:21.122Z,34.79
2022-07-27T14:41:47.774Z,34.97
2022-07-27T14:44:14.306Z,35.13
2022-07-27T14:46:46.297Z,35.30
2022-07-27T14:49:13.252Z,35.52
2022-07-27T14:51:39.975Z,37.31
2022-07-27T14:54:06.699Z,36.93
2022-07-27T14:56:33.371Z,37.02
2022-07-27T14:58:59.922Z,36.61
2022-07-27T15:01:26.881Z,37.06
2022-07-27T15:03:53.465Z,35.98
2022-07-27T15:06:20.103Z,36.26
2022-07-27T15:08:46.848Z,36.48
2022-07-27T15:11:13.526Z,36.59
2022-07-27T15:13:40.166Z,36.67
2022-07-27T15:16:07.103Z,36.36
2022-07-27T15:18:38.278Z,35.58
2022-07-27T15:21:13.527Z,36.66
2022-07-27T15:23:42.942Z,35.02
2022-07-27T15:26:09.549Z,35.35
2022-07-27T15:28:36.151Z,35.32
2022-07-27T15:31:02.859Z,35.31
2022-07-27T15:33:29.681Z,35.08
2022-07-27T15:35:57.848Z,34.59
2022-07-27T15:38:24.522Z,34.41
2022-07-27T15:40:51.073Z,35.19
2022-07-27T15:43:18.425Z,34.35
2022-07-27T15:45:50.821Z,33.47
2022-07-27T15:48:19.213Z,33.65
2022-07-27T15:50:49.620Z,33.43
2022-07-27T15:53:17.636Z,33.12
2022-07-27T15:55:44.733Z,34.84
2022-07-27T15:58:11.546Z,34.13
2022-07-27T16:00:41.171Z,34.50
2022-07-27T16:03:10.195Z,36.02
2022-07-27T16:05:38.435Z,33.64
2022-07-27T16:08:06.636Z,33.36
2022-07-27T16:10:33.209Z,33.89
2022-07-27T16:12:59.880Z,33.13
2022-07-27T16:15:26.661Z,34.06
2022-07-27T16:17:53.273Z,31.91
2022-07-27T16:20:19.852Z,32.52
2022-07-27T16:22:49.097Z,32.00
2022-07-27T16:25:15.701Z,33.06
2022-07-27T16:27:42.379Z,33.10
2022-07-27T16:30:09.264Z,35.14
2022-07-27T16:32:37.536Z,33.22
2022-07-27T16:35:09.043Z,33.08
2022-07-27T16:37:37.323Z,34.63
2022-07-27T16:40:04.641Z,32.57
2022-07-27T16:42:34.974Z,32.39
2022-07-27T16:45:04.910Z,32.18
2022-07-27T16:47:31.553Z,31.62
2022-07-27T16:49:58.141Z,32.92
2022-07-27T16:52:24.703Z,33.33
2022-07-27T16:54:51.347Z,33.44
2022-07-27T16:57:17.898Z,34.71
2022-07-27T16:59:47.700Z,33.86
2022-07-27T17:02:14.277Z,35.16
2022-07-27T17:04:41.191Z,33.83
2022-07-27T17:07:12.305Z,35.51
2022-07-27T17:09:39.851Z,34.49
2022-07-27T17:12:06.685Z,35.61
2022-07-27T17:14:33.570Z,34.51
2022-07-27T17:17:00.128Z,35.70
2022-07-27T17:19:26.898Z,35.26
2022-07-27T17:21:53.514Z,35.41
2022-07-27T17:24:20.251Z,37.28
2022-07-27T17:26:46.835Z,35.85
2022-07-27T17:29:14.049Z,36.24
2022-07-27T17:31:40.945Z,36.51
2022-07-27T17:34:07.814Z,34.76
2022-07-27T17:36:34.480Z,35.63
2022-07-27T17:39:01.090Z,36.43
2022-07-27T17:41:27.758Z,36.77
2022-07-27T17:43:54.706Z,34.47
2022-07-27T17:46:22.994Z,34.91
2022-07-27T17:48:50.845Z,35.23
2022-07-27T17:51:17.892Z,35.63
2022-07-27T17:53:45.201Z,34.80
2022-07-27T17:56:12.447Z,35.00
2022-07-27T17:58:39.585Z,35.83
2022-07-27T18:01:06.553Z,34.69
2022-07-27T18:03:33.495Z,35.65
2022-07-27T18:06:00.139Z,36.33
2022-07-27T18:08:27.067Z,35.80
2022-07-27T18:10:53.720Z,35.70
2022-07-27T18:13:20.469Z,35.30
2022-07-27T18:15:47.317Z,35.18
2022-07-27T18:18:25.219Z,35.37
2022-07-27T18:20:56.099Z,35.06
2022-07-27T18:23:24.746Z,35.99
2022-07-27T18:25:51.412Z,37.53
2022-07-27T18:28:18.186Z,35.31
2022-07-27T18:30:49.802Z,35.01
2022-07-27T18:33:17.409Z,35.55
2022-07-27T18:35:45.912Z,35.99
2022-07-27T18:38:13.430Z,35.73
2022-07-27T18:40:42.647Z,35.87
2022-07-27T18:43:10.063Z,37.17
2022-07-27T18:45:37.526Z,36.78
2022-07-27T18:48:04.716Z,38.98
2022-07-27T18:50:35.658Z,36.68
2022-07-27T18:53:05.650Z,36.58
2022-07-27T18:55:32.435Z,36.97
2022-07-27T18:57:59.049Z,38.06
2022-07-27T19:00:27.653Z,37.19
2022-07-27T19:02:56.719Z,37.77
2022-07-27T19:05:32.431Z,37.63
2022-07-27T19:08:08.812Z,38.37
2022-07-27T19:10:36.726Z,38.56
2022-07-27T19:13:03.566Z,38.47
2022-07-27T19:15:30.509Z,39.47
2022-07-27T19:18:00.291Z,40.64
2022-07-27T19:20:26.959Z,39.63
2022-07-27T19:22:53.742Z,39.72
2022-07-27T19:25:26.297Z,39.76
2022-07-27T19:27:53.208Z,39.37
2022-07-27T19:30:19.800Z,41.15
2022-07-27T19:32:46.591Z,41.45
2022-07-27T19:35:15.497Z,42.71
2022-07-27T19:37:42.213Z,43.88
2022-07-27T19:40:41.655Z,43.80
2022-07-27T19:42:56.628Z,44.88
2022-07-27T19:45:23.271Z,43.41
2022-07-27T19:47:49.928Z,43.57
2022-07-27T19:50:16.888Z,43.26
2022-07-27T19:52:43.657Z,43.67
2022-07-27T19:55:10.218Z,41.51
2022-07-27T19:57:37.050Z,42.76
2022-07-27T20:00:05.015Z,43.69
2022-07-27T20:02:31.882Z,43.92
2022-07-27T20:04:58.819Z,45.45
2022-07-27T20:07:25.680Z,44.63
2022-07-27T20:09:54.544Z,44.86
2022-07-27T20:12:31.088Z,43.74
2022-07-27T20:15:00.856Z,44.36
2022-07-27T20:17:28.223Z,44.30
2022-07-27T20:19:56.855Z,43.75
2022-07-27T20:22:23.545Z,44.74
2022-07-27T20:24:54.943Z,45.14
2022-07-27T20:27:22.046Z,45.73
2022-07-27T20:29:48.614Z,46.02
2022-07-27T20:32:18.326Z,46.02
2022-07-27T20:34:46.222Z,44.97
2022-07-27T20:37:17.726Z,46.63
2022-07-27T20:39:44.422Z,44.86
2022-07-27T20:42:11.127Z,46.61
2022-07-27T20:44:46.989Z,47.08
2022-07-27T20:47:13.940Z,47.18
2022-07-27T20:49:48.006Z,47.47
2022-07-27T20:52:17.188Z,49.05
2022-07-27T20:54:46.768Z,49.55
2022-07-27T20:57:20.807Z,49.17
2022-07-27T20:59:47.431Z,50.30
2022-07-27T21:02:14.028Z,50.37
2022-07-27T21:04:43.994Z,50.29
2022-07-27T21:07:18.207Z,50.43
2022-07-27T21:09:44.927Z,51.96
2022-07-27T21:12:11.721Z,52.92
2022-07-27T21:14:38.425Z,53.45
2022-07-27T21:17:10.684Z,54.29
2022-07-27T21:19:37.834Z,53.85
2022-07-27T21:22:06.100Z,53.67
2022-07-27T21:24:32.724Z,54.52
2022-07-27T21:27:04.385Z,55.21
2022-07-27T21:29:32.091Z,55.81
2022-07-27T21:31:58.895Z,55.94
2022-07-27T21:34:26.173Z,56.83
2022-07-27T21:36:52.868Z,56.43
2022-07-27T21:39:20.480Z,56.30
2022-07-27T21:41:47.117Z,57.30
2022-07-27T21:44:30.023Z,56.04
2022-07-27T21:47:13.439Z,57.07
2022-07-27T21:49:42.473Z,55.60
2022-07-27T21:52:13.243Z,57.22
2022-07-27T21:54:40.914Z,56.45
2022-07-27T21:57:10.189Z,56.09
2022-07-27T21:59:41.355Z,56.27
2022-07-27T22:02:16.220Z,57.03
2022-07-27T22:04:45.462Z,56.14
2022-07-27T22:07:16.782Z,57.67
2022-07-27T22:09:52.035Z,57.21
2022-07-27T22:12:24.862Z,57.47
2022-07-27T22:15:03.174Z,56.49
2022-07-27T22:17:50.106Z,57.97
2022-07-27T22:20:23.269Z,57.65
2022-07-27T22:22:54.816Z,56.79
2022-07-27T22:25:24.054Z,56.56
2022-07-27T22:27:50.737Z,56.33
2022-07-27T22:30:17.426Z,56.63
2022-07-27T22:32:44.347Z,58.80
2022-07-27T22:35:11.114Z,58.91
2022-07-27T22:37:37.657Z,58.84
2022-07-27T22:40:06.477Z,58.27
2022-07-27T22:42:33.047Z,59.63
2022-07-27T22:44:59.712Z,60.71
2022-07-27T22:47:26.543Z,58.77
2022-07-27T22:49:53.219Z,60.25
2022-07-27T22:52:19.832Z,59.13
2022-07-27T22:54:46.859Z,59.46
2022-07-27T22:57:13.429Z,59.05
2022-07-27T22:59:41.277Z,57.59
2022-07-27T23:02:08.208Z,57.67
2022-07-27T23:04:34.933Z,59.62
2022-07-27T23:07:01.579Z,59.34
2022-07-27T23:09:28.436Z,59.19
2022-07-27T23:11:55.267Z,58.63
2022-07-27T23:14:21.905Z,59.40
2022-07-27T23:16:48.578Z,58.72
2022-07-27T23:19:15.312Z,59.45
2022-07-27T23:21:42.422Z,59.62
2022-07-27T23:24:10.964Z,58.40
2022-07-27T23:26:38.460Z,59.62
2022-07-27T23:29:05.086Z,58.65
2022-07-27T23:31:31.799Z,60.13
2022-07-27T23:33:58.548Z,58.78
2022-07-27T23:36:25.098Z,59.95
2022-07-27T23:38:51.880Z,60.61
2022-07-27T23:41:18.440Z,60.73
2022-07-27T23:43:45.067Z,61.05
2022-07-27T23:46:12.074Z,61.98
2022-07-27T23:48:38.979Z,61.20
2022-07-27T23:51:05.798Z,60.40
2022-07-27T23:53:32.575Z,61.06
2022-07-27T23:55:59.112Z,60.33
2022-07-27T23:58:25.667Z,61.79
